Time;durP1;ratioP1;P1;durP2;ratioP2;P2;SDS_P1;SDS_P2;PMS_P1;PMS_P2;Temp;Humidity;BMP_temperature;BMP_pressure;BME280_temperature;BME280_humidity;BME280_pressure;Samples;Min_cycle;Max_cycle;Signal;HPM_P1;HPM_P2
2024/02/19 07:15:54;;;;;;;2.38;1.88;;;;;;;;;;5081526;27;79952;-83
2024/02/19 07:18:24;;;;;;;3.63;2.35;;;;;;;;;;5066601;28;20703;-89
2024/02/19 07:20:53;;;;;;;6.32;3.05;;;;;;;;;;5058569;28;20284;-83
2024/02/19 07:23:21;;;;;;;4.25;2.40;;;;;;;;;;5061045;28;20201;-83
2024/02/19 07:25:49;;;;;;;6.78;2.53;;;;;;;;;;5068127;28;20220;-82
2024/02/19 07:28:18;;;;;;;4.30;2.35;;;;;;;;;;5080016;28;20241;-83
2024/02/19 07:30:46;;;;;;;3.95;2.15;;;;;;;;;;5077759;28;20260;-82
2024/02/19 07:33:16;;;;;;;9.23;2.53;;;;;;;;;;5075828;28;20253;-84
2024/02/19 07:35:44;;;;;;;4.40;2.08;;;;;;;;;;5074362;28;20628;-84
2024/02/19 07:38:12;;;;;;;1.85;1.75;;;;;;;;;;5074455;28;20239;-85
2024/02/19 07:40:41;;;;;;;5.53;2.47;;;;;;;;;;5069524;28;20204;-84
2024/02/19 07:43:10;;;;;;;4.50;1.65;;;;;;;;;;5067615;28;20562;-83
2024/02/19 07:45:38;;;;;;;5.93;2.97;;;;;;;;;;5068557;28;20636;-84
2024/02/19 07:48:08;;;;;;;5.05;2.33;;;;;;;;;;5069268;28;20659;-84
2024/02/19 07:50:40;;;;;;;3.80;2.10;;;;;;;;;;5068570;28;20199;-84
2024/02/19 07:53:08;;;;;;;3.72;2.10;;;;;;;;;;5068680;28;20593;-84
2024/02/19 07:55:37;;;;;;;3.05;2.40;;;;;;;;;;5068827;28;20293;-83
2024/02/19 07:58:06;;;;;;;5.45;1.80;;;;;;;;;;5068758;28;20253;-84
2024/02/19 08:00:34;;;;;;;4.63;2.20;;;;;;;;;;5060775;28;20644;-85
2024/02/19 08:03:03;;;;;;;2.58;1.70;;;;;;;;;;5048926;28;20679;-85
2024/02/19 08:05:31;;;;;;;6.82;1.75;;;;;;;;;;5060562;28;20548;-85
2024/02/19 08:08:01;;;;;;;2.58;1.80;;;;;;;;;;5068574;28;20196;-84
2024/02/19 08:10:30;;;;;;;6.63;1.83;;;;;;;;;;5067355;28;20185;-85
2024/02/19 08:12:58;;;;;;;1.60;1.50;;;;;;;;;;5069228;28;20272;-85
2024/02/19 08:15:26;;;;;;;7.30;2.05;;;;;;;;;;5071154;28;20305;-85
2024/02/19 08:17:55;;;;;;;5.63;2.10;;;;;;;;;;5047038;28;20208;-85
2024/02/19 08:20:23;;;;;;;2.05;1.85;;;;;;;;;;5048406;28;20232;-86
2024/02/19 08:22:52;;;;;;;6.30;2.35;;;;;;;;;;5049628;28;20208;-86
2024/02/19 08:25:22;;;;;;;5.30;2.15;;;;;;;;;;5044391;28;20254;-86
2024/02/19 08:27:50;;;;;;;4.57;1.70;;;;;;;;;;5053799;28;20222;-85
2024/02/19 08:30:19;;;;;;;3.10;2.70;;;;;;;;;;5053701;28;20253;-86
2024/02/19 08:32:47;;;;;;;7.20;2.00;;;;;;;;;;5055067;28;20333;-86
2024/02/19 08:35:15;;;;;;;6.05;2.08;;;;;;;;;;5059896;28;20280;-84
2024/02/19 08:37:44;;;;;;;4.97;2.00;;;;;;;;;;5056366;28;20234;-86
2024/02/19 08:40:12;;;;;;;2.95;1.80;;;;;;;;;;5054667;28;20208;-85
2024/02/19 08:42:41;;;;;;;3.75;2.00;;;;;;;;;;5054344;28;20676;-85
2024/02/19 08:45:09;;;;;;;8.48;2.60;;;;;;;;;;5054008;28;20660;-84
2024/02/19 08:47:38;;;;;;;4.32;2.30;;;;;;;;;;5036809;28;20204;-84
2024/02/19 08:50:06;;;;;;;4.13;2.03;;;;;;;;;;5053438;28;20200;-84
2024/02/19 08:52:35;;;;;;;5.88;2.13;;;;;;;;;;5054386;28;20199;-82
2024/02/19 08:55:03;;;;;;;3.20;1.95;;;;;;;;;;5054352;28;20209;-85
2024/02/19 08:57:32;;;;;;;2.00;1.80;;;;;;;;;;5053688;28;20193;-85
2024/02/19 09:00:04;;;;;;;2.93;1.60;;;;;;;;;;5058063;28;20733;-84
2024/02/19 09:02:32;;;;;;;4.38;2.10;;;;;;;;;;5056222;28;20595;-85
2024/02/19 09:05:01;;;;;;;3.42;2.17;;;;;;;;;;5054557;28;20201;-84
2024/02/19 09:07:29;;;;;;;6.17;2.07;;;;;;;;;;5054236;28;20671;-87
2024/02/19 09:09:57;;;;;;;2.60;1.90;;;;;;;;;;5053751;28;20601;-86
2024/02/19 09:12:26;;;;;;;5.43;2.50;;;;;;;;;;5052239;28;20660;-85
2024/02/19 09:14:57;;;;;;;4.63;2.20;;;;;;;;;;5054076;28;20662;-86
2024/02/19 09:17:27;;;;;;;3.72;2.40;;;;;;;;;;5052301;28;20226;-87
2024/02/19 09:19:58;;;;;;;7.60;2.00;;;;;;;;;;5052237;28;20204;-84
2024/02/19 09:22:27;;;;;;;4.25;2.45;;;;;;;;;;5053503;28;20207;-83
2024/02/19 09:24:56;;;;;;;5.55;2.88;;;;;;;;;;5053237;28;20196;-83
2024/02/19 09:30:24;;;;;;;2.92;1.92;;;;;;;;;;5049565;28;20200;-85
2024/02/19 09:32:54;;;;;;;3.22;1.92;;;;;;;;;;5058846;28;20636;-85
2024/02/19 09:35:22;;;;;;;9.20;2.33;;;;;;;;;;5052816;28;20278;-85
2024/02/19 09:37:51;;;;;;;4.40;1.73;;;;;;;;;;5053187;28;20661;-86
2024/02/19 09:40:22;;;;;;;4.43;2.25;;;;;;;;;;5052953;28;21165;-83
2024/02/19 09:42:51;;;;;;;5.17;1.90;;;;;;;;;;5054113;28;20203;-85
2024/02/19 09:45:20;;;;;;;3.57;1.70;;;;;;;;;;5053174;28;20586;-84
2024/02/19 09:47:52;;;;;;;3.42;1.50;;;;;;;;;;5052980;28;20615;-84
2024/02/19 09:50:23;;;;;;;2.38;2.10;;;;;;;;;;5053241;28;20211;-84
2024/02/19 09:52:53;;;;;;;3.38;1.90;;;;;;;;;;5053283;28;20656;-85
2024/02/19 09:55:21;;;;;;;9.02;2.45;;;;;;;;;;5053203;28;20216;-84
2024/02/19 09:58:00;;;;;;;6.33;2.07;;;;;;;;;;5048807;28;20231;-84
2024/02/19 10:00:30;;;;;;;2.45;1.92;;;;;;;;;;5032652;28;20663;-83
2024/02/19 10:02:59;;;;;;;2.80;2.50;;;;;;;;;;5036351;28;20193;-84
2024/02/19 10:05:33;;;;;;;19.13;4.35;;;;;;;;;;5040363;28;20276;-84
2024/02/19 10:08:05;;;;;;;7.20;3.30;;;;;;;;;;5052088;28;20276;-85
2024/02/19 10:10:37;;;;;;;2.97;2.10;;;;;;;;;;5064181;28;20678;-84
2024/02/19 10:13:06;;;;;;;5.50;2.30;;;;;;;;;;5073150;28;20654;-85
2024/02/19 10:15:34;;;;;;;4.87;3.30;;;;;;;;;;5063998;28;20808;-83
2024/02/19 10:18:13;;;;;;;10.27;3.87;;;;;;;;;;5061583;28;20591;-84
2024/02/19 10:20:59;;;;;;;7.20;3.30;;;;;;;;;;5044667;28;20636;-86
2024/02/19 10:23:30;;;;;;;7.97;3.40;;;;;;;;;;5042737;28;20646;-86
2024/02/19 10:25:59;;;;;;;4.10;3.10;;;;;;;;;;5038131;28;21233;-86
2024/02/19 10:28:30;;;;;;;4.50;3.43;;;;;;;;;;5050260;28;20668;-86
2024/02/19 10:30:59;;;;;;;9.00;3.30;;;;;;;;;;5053420;28;20614;-84
2024/02/19 10:33:27;;;;;;;6.80;3.57;;;;;;;;;;5046982;28;20959;-83
2024/02/19 10:35:55;;;;;;;3.90;2.47;;;;;;;;;;5047305;28;20660;-85
2024/02/19 10:38:24;;;;;;;3.60;2.67;;;;;;;;;;5048054;28;20681;-86
2024/02/19 10:40:54;;;;;;;2.87;2.53;;;;;;;;;;5053417;28;21173;-83
2024/02/19 10:43:23;;;;;;;4.93;3.00;;;;;;;;;;5047534;28;100794;-82
2024/02/19 10:45:52;;;;;;;3.10;2.33;;;;;;;;;;5035029;28;20591;-86
2024/02/19 10:48:20;;;;;;;2.93;2.73;;;;;;;;;;5052875;28;20631;-82
2024/02/19 10:50:49;;;;;;;4.77;3.10;;;;;;;;;;5053125;28;20718;-83
2024/02/19 10:53:19;;;;;;;4.73;2.90;;;;;;;;;;5052144;28;20623;-84
2024/02/19 10:55:50;;;;;;;3.57;3.27;;;;;;;;;;5051470;28;20673;-83
2024/02/19 10:58:26;;;;;;;8.90;3.40;;;;;;;;;;5052265;28;21224;-83
2024/02/19 11:00:59;;;;;;;4.00;3.80;;;;;;;;;;5052906;28;20597;-84
2024/02/19 11:03:27;;;;;;;4.90;4.40;;;;;;;;;;5051507;28;21010;-83
2024/02/19 11:06:01;;;;;;;6.30;4.10;;;;;;;;;;5051305;28;21081;-84
2024/02/19 11:08:34;;;;;;;8.47;4.67;;;;;;;;;;5051760;28;20615;-84
2024/02/19 11:11:05;;;;;;;10.30;4.20;;;;;;;;;;5048984;28;21205;-84
2024/02/19 11:13:37;;;;;;;5.30;3.67;;;;;;;;;;5051455;28;20611;-82
2024/02/19 11:16:16;;;;;;;5.97;4.00;;;;;;;;;;5052002;28;20647;-82
2024/02/19 11:18:44;;;;;;;4.57;3.70;;;;;;;;;;5034519;28;20618;-84
2024/02/19 11:21:12;;;;;;;6.60;4.23;;;;;;;;;;5052698;28;21232;-83
2024/02/19 11:23:41;;;;;;;5.33;4.87;;;;;;;;;;5051704;28;20610;-84
2024/02/19 11:26:10;;;;;;;6.40;3.20;;;;;;;;;;5053432;28;20726;-87
2024/02/19 11:28:40;;;;;;;3.57;3.27;;;;;;;;;;5054130;28;20722;-85
2024/02/19 11:31:09;;;;;;;8.30;5.27;;;;;;;;;;5054084;28;20629;-85
2024/02/19 11:33:38;;;;;;;4.30;4.00;;;;;;;;;;5051582;28;20954;-83
2024/02/19 11:36:07;;;;;;;6.50;4.20;;;;;;;;;;5054743;28;20686;-87
2024/02/19 11:38:38;;;;;;;6.83;3.47;;;;;;;;;;5057566;28;20986;-84
2024/02/19 11:41:09;;;;;;;6.37;3.63;;;;;;;;;;5056072;28;20649;-83
2024/02/19 11:43:39;;;;;;;8.00;4.10;;;;;;;;;;5058251;28;21181;-87
2024/02/19 11:46:08;;;;;;;3.50;3.20;;;;;;;;;;5056793;28;20622;-85
2024/02/19 11:48:37;;;;;;;11.20;3.70;;;;;;;;;;5056258;28;20622;-87
2024/02/19 11:51:06;;;;;;;7.50;3.23;;;;;;;;;;5055815;28;20733;-88
2024/02/19 11:53:36;;;;;;;3.60;3.30;;;;;;;;;;5050720;28;20619;-85
2024/02/19 11:56:05;;;;;;;10.53;4.70;;;;;;;;;;5051776;28;20632;-85
2024/02/19 11:58:33;;;;;;;4.23;3.10;;;;;;;;;;5053547;28;20599;-86
2024/02/19 12:01:03;;;;;;;4.47;4.03;;;;;;;;;;5053803;28;20597;-86
2024/02/19 12:03:34;;;;;;;5.10;3.70;;;;;;;;;;5050863;28;20600;-85
2024/02/19 12:06:03;;;;;;;10.80;3.50;;;;;;;;;;5046564;28;20715;-85
2024/02/19 12:08:31;;;;;;;4.33;3.77;;;;;;;;;;5047742;28;20602;-86
2024/02/19 12:11:00;;;;;;;6.27;3.60;;;;;;;;;;5043635;28;21170;-87
2024/02/19 12:13:28;;;;;;;8.10;4.33;;;;;;;;;;5048394;28;21039;-86
2024/02/19 12:15:58;;;;;;;9.30;4.18;;;;;;;;;;5063411;28;20629;-84
2024/02/19 12:18:30;;;;;;;8.00;5.07;;;;;;;;;;5074727;28;20275;-84
2024/02/19 12:20:59;;;;;;;7.70;4.30;;;;;;;;;;5048511;28;20671;-83
2024/02/19 12:23:28;;;;;;;8.40;4.47;;;;;;;;;;5064806;28;21219;-87
2024/02/19 12:25:56;;;;;;;4.93;4.27;;;;;;;;;;5069612;28;21240;-84
2024/02/19 12:28:25;;;;;;;6.23;3.77;;;;;;;;;;5050434;28;20900;-85
2024/02/19 12:30:53;;;;;;;10.43;4.40;;;;;;;;;;5063478;28;20656;-85
2024/02/19 12:33:22;;;;;;;21.00;5.07;;;;;;;;;;5066529;28;20582;-81
2024/02/19 12:35:51;;;;;;;8.93;5.03;;;;;;;;;;5055384;28;20720;-86
2024/02/19 12:38:20;;;;;;;12.33;5.33;;;;;;;;;;5047213;28;20602;-84
2024/02/19 12:40:48;;;;;;;8.00;4.37;;;;;;;;;;5063647;28;20612;-83
2024/02/19 12:43:17;;;;;;;7.07;4.43;;;;;;;;;;5065621;28;20610;-86
2024/02/19 12:45:46;;;;;;;7.03;4.63;;;;;;;;;;5066130;28;20637;-82
2024/02/19 12:48:17;;;;;;;14.37;5.47;;;;;;;;;;5068799;28;20586;-84
2024/02/19 12:50:46;;;;;;;11.90;4.70;;;;;;;;;;5056124;28;20634;-86
2024/02/19 12:53:16;;;;;;;10.50;6.20;;;;;;;;;;5072964;28;20601;-86
2024/02/19 12:55:44;;;;;;;8.83;4.60;;;;;;;;;;5071660;28;20716;-87
2024/02/19 12:58:13;;;;;;;14.63;4.70;;;;;;;;;;5075588;28;21001;-86
2024/02/19 13:00:42;;;;;;;10.50;4.67;;;;;;;;;;5082947;28;20761;-89
2024/02/19 13:03:10;;;;;;;10.27;5.27;;;;;;;;;;5063520;28;20781;-88
2024/02/19 13:05:39;;;;;;;6.57;4.40;;;;;;;;;;5085773;28;20705;-85
2024/02/19 13:08:10;;;;;;;7.20;4.40;;;;;;;;;;5087773;28;20630;-82
2024/02/19 13:10:41;;;;;;;7.13;4.20;;;;;;;;;;5079146;28;20672;-82
2024/02/19 13:13:11;;;;;;;9.33;4.67;;;;;;;;;;5081384;28;20648;-80
2024/02/19 13:15:40;;;;;;;11.23;4.00;;;;;;;;;;5061639;28;20741;-80
2024/02/19 13:18:10;;;;;;;6.50;5.17;;;;;;;;;;5078708;28;20737;-82
2024/02/19 13:20:40;;;;;;;10.63;5.27;;;;;;;;;;5070122;28;20706;-83
2024/02/19 13:23:09;;;;;;;7.73;4.33;;;;;;;;;;5081221;28;20695;-81
2024/02/19 13:25:38;;;;;;;5.77;3.50;;;;;;;;;;5077856;28;20721;-81
2024/02/19 13:28:10;;;;;;;7.17;4.30;;;;;;;;;;5065304;28;20685;-85
2024/02/19 13:30:38;;;;;;;9.03;4.67;;;;;;;;;;5084150;28;20677;-85
2024/02/19 13:33:07;;;;;;;7.07;3.80;;;;;;;;;;5052936;28;20618;-84
2024/02/19 13:35:37;;;;;;;7.33;4.90;;;;;;;;;;5085360;28;20729;-82
2024/02/19 13:38:06;;;;;;;7.50;3.97;;;;;;;;;;5088003;28;20685;-80
2024/02/19 13:40:35;;;;;;;6.93;4.33;;;;;;;;;;5050159;28;20630;-81
2024/02/19 13:43:04;;;;;;;4.60;4.13;;;;;;;;;;5075846;28;20700;-86
2024/02/19 13:45:55;;;;;;;6.30;4.50;;;;;;;;;;5088448;28;20633;-82
2024/02/19 13:48:24;;;;;;;6.10;3.87;;;;;;;;;;5082634;28;20713;-79
2024/02/19 13:50:55;;;;;;;7.60;4.20;;;;;;;;;;5059874;28;20699;-81
2024/02/19 13:53:24;;;;;;;10.13;3.93;;;;;;;;;;5073318;28;20822;-82
2024/02/19 13:55:53;;;;;;;9.20;4.53;;;;;;;;;;5070833;28;20718;-82
2024/02/19 13:58:22;;;;;;;8.30;4.43;;;;;;;;;;5059418;28;20657;-81
2024/02/19 14:00:53;;;;;;;7.70;3.90;;;;;;;;;;5072083;28;20596;-84
2024/02/19 14:03:21;;;;;;;6.20;4.00;;;;;;;;;;5057502;28;21052;-84
2024/02/19 14:05:50;;;;;;;13.43;4.43;;;;;;;;;;5057043;28;21038;-84
2024/02/19 14:08:21;;;;;;;9.60;3.77;;;;;;;;;;5047221;28;20609;-86
2024/02/19 14:10:51;;;;;;;9.93;5.70;;;;;;;;;;5073844;28;21171;-86
2024/02/19 14:13:20;;;;;;;7.00;4.60;;;;;;;;;;5059170;28;20592;-85
2024/02/19 14:15:48;;;;;;;8.33;5.20;;;;;;;;;;5057156;28;20688;-84
2024/02/19 14:18:18;;;;;;;6.77;4.30;;;;;;;;;;5074445;28;20658;-83
2024/02/19 14:20:46;;;;;;;15.60;13.20;;;;;;;;;;5075417;28;21149;-84
2024/02/19 14:23:15;;;;;;;9.73;6.30;;;;;;;;;;5066707;28;20628;-84
2024/02/19 14:25:44;;;;;;;7.27;5.80;;;;;;;;;;5033216;28;20690;-84
2024/02/19 14:28:12;;;;;;;7.37;4.93;;;;;;;;;;5063404;28;20622;-83
2024/02/19 14:30:40;;;;;;;7.60;6.10;;;;;;;;;;5072767;28;20695;-87
2024/02/19 14:33:09;;;;;;;12.07;5.53;;;;;;;;;;5061034;28;20605;-84
2024/02/19 14:35:38;;;;;;;7.37;6.67;;;;;;;;;;5062255;28;20591;-85
2024/02/19 14:38:07;;;;;;;10.67;5.00;;;;;;;;;;5060266;28;21036;-85
2024/02/19 14:40:37;;;;;;;7.47;6.30;;;;;;;;;;5066412;28;21199;-84
2024/02/19 14:43:07;;;;;;;10.73;5.10;;;;;;;;;;5041357;28;21364;-84
2024/02/19 14:45:36;;;;;;;8.70;5.00;;;;;;;;;;5070262;28;20607;-88
2024/02/19 14:48:08;;;;;;;8.97;6.57;;;;;;;;;;5076316;28;20721;-87
2024/02/19 14:50:37;;;;;;;6.70;5.33;;;;;;;;;;5058078;28;20603;-86
2024/02/19 14:53:07;;;;;;;12.60;5.90;;;;;;;;;;5077819;28;20662;-86
2024/02/19 14:55:35;;;;;;;5.68;4.32;;;;;;;;;;5089051;28;20786;-87
2024/02/19 14:58:07;;;;;;;7.53;5.27;;;;;;;;;;5055822;28;20230;-87
2024/02/19 15:00:35;;;;;;;9.10;4.63;;;;;;;;;;5072859;28;20565;-85
2024/02/19 15:03:07;;;;;;;11.53;5.10;;;;;;;;;;5053928;28;21180;-86
2024/02/19 15:05:35;;;;;;;14.13;6.87;;;;;;;;;;5051860;28;20606;-90
2024/02/19 15:08:15;;;;;;;12.03;5.90;;;;;;;;;;5047171;28;20649;-87
2024/02/19 15:10:45;;;;;;;14.00;9.70;;;;;;;;;;5059053;28;20639;-87
2024/02/19 15:13:15;;;;;;;11.18;6.00;;;;;;;;;;5067603;28;20607;-88
2024/02/19 15:15:46;;;;;;;8.05;6.70;;;;;;;;;;5063851;28;20714;-90
2024/02/19 15:18:15;;;;;;;6.00;5.40;;;;;;;;;;5061161;28;20205;-86
2024/02/19 15:20:49;;;;;;;8.07;6.23;;;;;;;;;;5064379;28;20609;-89
2024/02/19 15:23:18;;;;;;;6.18;4.38;;;;;;;;;;5034987;28;20634;-86
2024/02/19 15:25:47;;;;;;;9.27;6.70;;;;;;;;;;5045932;28;20728;-86
2024/02/19 15:28:16;;;;;;;28.87;25.37;;;;;;;;;;5045799;28;20634;-87
2024/02/19 15:30:45;;;;;;;10.53;8.60;;;;;;;;;;5035816;28;20576;-89
2024/02/19 15:33:13;;;;;;;8.73;5.77;;;;;;;;;;5044809;28;20619;-86
2024/02/19 15:35:45;;;;;;;9.83;5.20;;;;;;;;;;5037823;28;21242;-83
2024/02/19 15:38:13;;;;;;;8.83;5.13;;;;;;;;;;5072636;28;21295;-85
2024/02/19 15:40:42;;;;;;;7.80;4.90;;;;;;;;;;5035784;28;20596;-85
2024/02/19 15:43:11;;;;;;;7.50;5.00;;;;;;;;;;5059365;28;20196;-86
2024/02/19 15:45:43;;;;;;;11.00;6.70;;;;;;;;;;5055418;28;20598;-84
2024/02/19 15:48:14;;;;;;;10.33;5.43;;;;;;;;;;5047135;28;20585;-86
2024/02/19 15:50:42;;;;;;;6.77;4.80;;;;;;;;;;5075803;28;21119;-88
2024/02/19 15:53:16;;;;;;;6.93;5.13;;;;;;;;;;5058156;28;20634;-86
2024/02/19 15:55:45;;;;;;;7.80;5.43;;;;;;;;;;5062948;28;20687;-88
2024/02/19 15:58:17;;;;;;;9.23;5.37;;;;;;;;;;5063618;28;20636;-87
2024/02/19 16:00:46;;;;;;;7.70;5.93;;;;;;;;;;5079006;28;20643;-88
2024/02/19 16:03:15;;;;;;;10.93;4.87;;;;;;;;;;5084759;28;20687;-87
2024/02/19 16:05:44;;;;;;;10.23;5.40;;;;;;;;;;5051440;28;20606;-88
2024/02/19 16:08:37;;;;;;;12.00;6.80;;;;;;;;;;5093020;28;20620;-92
2024/02/19 16:11:06;;;;;;;6.50;4.50;;;;;;;;;;5070873;28;20228;-89
2024/02/19 16:13:36;;;;;;;8.13;4.83;;;;;;;;;;5079240;28;20593;-88
2024/02/19 16:16:11;;;;;;;9.70;4.80;;;;;;;;;;5069181;28;20653;-87
2024/02/19 16:18:41;;;;;;;7.00;5.10;;;;;;;;;;5048717;28;20732;-89
2024/02/19 16:21:13;;;;;;;12.63;5.43;;;;;;;;;;5043909;28;20749;-89
2024/02/19 16:23:42;;;;;;;10.07;6.43;;;;;;;;;;5057875;28;20308;-88
2024/02/19 16:26:10;;;;;;;7.93;5.77;;;;;;;;;;5022600;28;20193;-86
2024/02/19 16:28:41;;;;;;;9.80;5.63;;;;;;;;;;5054302;28;21080;-87
2024/02/19 16:31:10;;;;;;;9.80;4.83;;;;;;;;;;5076863;28;20204;-87
2024/02/19 16:33:39;;;;;;;12.35;5.57;;;;;;;;;;5060497;28;20700;-88
2024/02/19 16:36:08;;;;;;;9.68;5.75;;;;;;;;;;5065890;28;20197;-88
2024/02/19 16:38:41;;;;;;;10.03;5.50;;;;;;;;;;5064524;28;20695;-87
2024/02/19 16:41:09;;;;;;;6.13;4.75;;;;;;;;;;5057705;28;20654;-89
2024/02/19 16:43:37;;;;;;;9.23;3.92;;;;;;;;;;5055502;28;20205;-85
2024/02/19 16:46:08;;;;;;;5.35;4.47;;;;;;;;;;5067119;28;20590;-89
2024/02/19 16:48:38;;;;;;;10.40;4.37;;;;;;;;;;5049630;28;20231;-86
2024/02/19 16:51:07;;;;;;;3.67;3.38;;;;;;;;;;5064903;28;20666;-91
2024/02/19 16:53:35;;;;;;;6.72;4.00;;;;;;;;;;5051062;28;20326;-89
2024/02/19 16:56:04;;;;;;;6.65;4.18;;;;;;;;;;5068829;28;20604;-88
2024/02/19 16:58:34;;;;;;;7.85;3.63;;;;;;;;;;5060624;28;20285;-86
2024/02/19 17:01:04;;;;;;;6.88;4.18;;;;;;;;;;5063105;28;20718;-89
2024/02/19 17:03:33;;;;;;;6.90;5.20;;;;;;;;;;5047224;28;20283;-89
2024/02/19 17:06:02;;;;;;;7.93;5.40;;;;;;;;;;5064612;28;21149;-87
2024/02/19 17:08:31;;;;;;;8.52;5.20;;;;;;;;;;5056622;28;20609;-88
2024/02/19 17:11:00;;;;;;;8.33;5.13;;;;;;;;;;5075037;28;20554;-89
2024/02/19 17:13:28;;;;;;;10.65;5.32;;;;;;;;;;5071204;28;20601;-85
2024/02/19 17:15:56;;;;;;;10.48;6.35;;;;;;;;;;5057821;28;20230;-86
2024/02/19 17:18:24;;;;;;;12.63;4.90;;;;;;;;;;5049983;28;20224;-87
2024/02/19 17:20:54;;;;;;;8.13;5.80;;;;;;;;;;5047393;28;20649;-85
2024/02/19 17:23:23;;;;;;;9.07;5.85;;;;;;;;;;5054394;28;20196;-85
2024/02/19 17:25:51;;;;;;;8.57;5.03;;;;;;;;;;5044332;28;20196;-85
2024/02/19 17:28:22;;;;;;;11.93;6.20;;;;;;;;;;5060642;28;20193;-86
2024/02/19 17:30:52;;;;;;;5.55;4.95;;;;;;;;;;5062350;28;20196;-86
2024/02/19 17:33:21;;;;;;;7.55;5.85;;;;;;;;;;5049090;28;20207;-83
2024/02/19 17:35:51;;;;;;;10.65;5.55;;;;;;;;;;5063381;28;20197;-85
2024/02/19 17:38:21;;;;;;;8.30;5.32;;;;;;;;;;5065267;28;20196;-86
2024/02/19 17:40:54;;;;;;;8.18;5.38;;;;;;;;;;5067487;28;20756;-87
2024/02/19 17:43:22;;;;;;;12.25;5.60;;;;;;;;;;5085655;28;20337;-87
2024/02/19 17:45:51;;;;;;;11.45;7.32;;;;;;;;;;5068081;28;20692;-90
2024/02/19 17:48:21;;;;;;;15.48;10.93;;;;;;;;;;5085530;28;20197;-91
2024/02/19 17:50:50;;;;;;;18.83;8.13;;;;;;;;;;5078708;28;20254;-90
2024/02/19 17:53:21;;;;;;;10.25;7.95;;;;;;;;;;5061747;28;20246;-90
2024/02/19 17:55:49;;;;;;;11.63;7.07;;;;;;;;;;5076659;28;20220;-88
2024/02/19 17:58:19;;;;;;;22.15;15.27;;;;;;;;;;5077132;28;20642;-89
2024/02/19 18:00:47;;;;;;;11.55;7.70;;;;;;;;;;5059073;28;20192;-87
2024/02/19 18:03:17;;;;;;;14.63;7.70;;;;;;;;;;5046726;28;20280;-91
2024/02/19 18:05:45;;;;;;;12.10;8.00;;;;;;;;;;5061693;28;20295;-91
2024/02/19 18:08:13;;;;;;;9.80;8.00;;;;;;;;;;5049843;28;20341;-91
2024/02/19 18:10:43;;;;;;;12.35;8.25;;;;;;;;;;5041440;28;20192;-90
2024/02/19 18:13:12;;;;;;;9.15;7.70;;;;;;;;;;5023879;28;20664;-88
2024/02/19 18:15:40;;;;;;;9.45;6.25;;;;;;;;;;5071225;28;20444;-88
2024/02/19 18:18:09;;;;;;;14.13;7.15;;;;;;;;;;5060871;28;20349;-89
2024/02/19 18:20:37;;;;;;;10.48;7.72;;;;;;;;;;5059720;28;20212;-89
2024/02/19 18:23:09;;;;;;;12.20;8.68;;;;;;;;;;5075381;28;20208;-87
2024/02/19 18:25:37;;;;;;;15.90;8.38;;;;;;;;;;5046088;28;20197;-88
2024/02/19 18:28:08;;;;;;;13.05;8.60;;;;;;;;;;5041092;28;20214;-88
2024/02/19 18:30:36;;;;;;;15.70;9.50;;;;;;;;;;5073696;28;20226;-87
2024/02/19 18:33:05;;;;;;;26.40;8.35;;;;;;;;;;5051738;28;20197;-88
2024/02/19 18:35:33;;;;;;;15.93;7.07;;;;;;;;;;5047153;28;20231;-91
2024/02/19 18:38:04;;;;;;;11.70;6.70;;;;;;;;;;5069844;28;20200;-87
2024/02/19 18:40:32;;;;;;;12.88;7.38;;;;;;;;;;5035843;28;20272;-89
2024/02/19 18:43:00;;;;;;;7.75;6.70;;;;;;;;;;5072888;28;20607;-87
2024/02/19 18:45:30;;;;;;;14.15;6.90;;;;;;;;;;5079604;28;20263;-82
2024/02/19 18:48:00;;;;;;;9.10;6.18;;;;;;;;;;5079669;28;20282;-86
2024/02/19 18:50:28;;;;;;;12.18;7.78;;;;;;;;;;5081895;28;20338;-86
2024/02/19 18:52:57;;;;;;;8.60;5.57;;;;;;;;;;5079278;28;20279;-87
2024/02/19 18:55:25;;;;;;;11.82;5.72;;;;;;;;;;5079460;28;20662;-84
2024/02/19 18:57:54;;;;;;;6.90;4.50;;;;;;;;;;5068139;28;20251;-85
2024/02/19 19:00:22;;;;;;;9.93;5.30;;;;;;;;;;5075666;28;20236;-87
2024/02/19 19:02:57;;;;;;;5.95;3.40;;;;;;;;;;5067094;28;20236;-85
2024/02/19 19:05:25;;;;;;;6.95;4.15;;;;;;;;;;5077289;28;20347;-84
2024/02/19 19:07:54;;;;;;;6.28;3.92;;;;;;;;;;5081162;28;20215;-84
2024/02/19 19:10:23;;;;;;;6.40;3.65;;;;;;;;;;5083042;28;20639;-85
2024/02/19 19:12:51;;;;;;;5.15;3.65;;;;;;;;;;5078729;28;20426;-84
2024/02/19 19:15:20;;;;;;;7.00;3.85;;;;;;;;;;5073860;28;20626;-84
2024/02/19 19:17:49;;;;;;;7.75;3.63;;;;;;;;;;5056127;28;20332;-84
2024/02/19 19:20:19;;;;;;;5.22;3.95;;;;;;;;;;5060316;28;20215;-83
2024/02/19 19:22:47;;;;;;;11.35;3.70;;;;;;;;;;5071809;28;20207;-83
2024/02/19 19:25:16;;;;;;;7.68;4.20;;;;;;;;;;5071965;28;20245;-85
2024/02/19 19:27:46;;;;;;;5.70;4.10;;;;;;;;;;5059086;28;20205;-84
2024/02/19 19:30:14;;;;;;;6.85;5.38;;;;;;;;;;5058236;28;20207;-84
2024/02/19 19:32:43;;;;;;;6.05;4.68;;;;;;;;;;5071918;28;20195;-84
2024/02/19 19:35:13;;;;;;;5.40;4.80;;;;;;;;;;5068849;28;20219;-80
2024/02/19 19:37:44;;;;;;;8.88;4.60;;;;;;;;;;5053516;28;20854;-89
2024/02/19 19:40:13;;;;;;;11.32;5.05;;;;;;;;;;5050910;28;20356;-84
2024/02/19 19:42:45;;;;;;;11.00;6.03;;;;;;;;;;5061805;28;20223;-84
2024/02/19 19:45:14;;;;;;;8.50;5.40;;;;;;;;;;5062996;28;20264;-83
2024/02/19 19:47:43;;;;;;;7.53;5.72;;;;;;;;;;5059211;28;20208;-83
2024/02/19 19:50:11;;;;;;;9.60;6.97;;;;;;;;;;5044350;28;20189;-84
2024/02/19 19:52:40;;;;;;;8.80;5.40;;;;;;;;;;5047697;28;20200;-82
2024/02/19 19:55:10;;;;;;;7.75;5.07;;;;;;;;;;5060885;28;20188;-83
2024/02/19 19:57:40;;;;;;;7.40;5.18;;;;;;;;;;5058382;28;20204;-85
2024/02/19 20:00:11;;;;;;;7.55;4.32;;;;;;;;;;5058807;28;20224;-83
2024/02/19 20:02:43;;;;;;;8.10;4.60;;;;;;;;;;5032826;28;20203;-84
2024/02/19 20:05:12;;;;;;;5.32;4.22;;;;;;;;;;5058667;28;20205;-85
2024/02/19 20:07:42;;;;;;;5.53;3.83;;;;;;;;;;5042978;28;20227;-84
2024/02/19 20:10:14;;;;;;;4.35;3.20;;;;;;;;;;5044779;28;20643;-84
2024/02/19 20:12:43;;;;;;;4.35;3.33;;;;;;;;;;5061074;28;20201;-82
2024/02/19 20:15:11;;;;;;;3.65;3.35;;;;;;;;;;5060860;28;20231;-82
2024/02/19 20:17:42;;;;;;;7.47;3.80;;;;;;;;;;5052097;28;20232;-82
